Time;durP1;ratioP1;P1;durP2;ratioP2;P2;SDS_P1;SDS_P2;PMS_P1;PMS_P2;Temp;Humidity;BMP_temperature;BMP_pressure;BME280_temperature;BME280_humidity;BME280_pressure;Samples;Min_cycle;Max_cycle;Signal;HPM_P1;HPM_P2
2020/12/04 00:01:12;;;;;;;;;;;;;;;21.16;41.02;97214.84;3135505;27;115009;-55
2020/12/04 00:02:44;;;;;;;;;;;;;;;21.15;40.97;97204.81;3135798;27;115337;-55
2020/12/04 00:04:16;;;;;;;;;;;;;;;21.15;41.03;97199.19;3135385;27;114836;-55
2020/12/04 00:05:47;;;;;;;;;;;;;;;21.13;40.89;97190.38;3121965;27;114763;-55
2020/12/04 00:07:18;;;;;;;;;;;;;;;21.13;40.93;97192.38;3131103;27;115248;-54
2020/12/04 00:08:49;;;;;;;;;;;;;;;21.12;41.21;97176.72;3135148;27;115041;-55
2020/12/04 00:10:20;;;;;;;;;;;;;;;21.11;40.88;97169.50;3135811;27;115208;-55
2020/12/04 00:11:53;;;;;;;;;;;;;;;21.11;40.90;97173.09;3135086;27;114408;-55
2020/12/04 00:13:25;;;;;;;;;;;;;;;21.11;41.37;97173.09;3138245;27;115365;-54
2020/12/04 00:15:00;;;;;;;;;;;;;;;21.13;41.36;97169.91;3136085;27;114653;-59
2020/12/04 00:16:31;;;;;;;;;;;;;;;21.14;41.22;97155.47;3135619;27;117385;-54
2020/12/04 00:18:03;;;;;;;;;;;;;;;21.17;41.16;97156.66;3132593;27;115542;-55
2020/12/04 00:19:34;;;;;;;;;;;;;;;21.18;41.27;97152.66;3135312;27;114592;-68
2020/12/04 00:21:05;;;;;;;;;;;;;;;21.20;41.25;97150.25;3135935;27;115789;-68
2020/12/04 00:22:36;;;;;;;;;;;;;;;21.21;41.43;97144.22;3136095;27;117700;-67
2020/12/04 00:24:07;;;;;;;;;;;;;;;21.23;41.39;97144.63;3122057;27;115864;-68
2020/12/04 00:25:39;;;;;;;;;;;;;;;21.27;41.45;97147.41;3130272;27;115789;-68
2020/12/04 00:27:10;;;;;;;;;;;;;;;21.29;41.38;97143.00;3135438;27;115831;-68
2020/12/04 00:28:41;;;;;;;;;;;;;;;21.32;41.40;97137.78;3134329;27;115988;-68
2020/12/04 00:30:12;;;;;;;;;;;;;;;21.34;41.39;97136.19;3136524;27;116140;-67
2020/12/04 00:31:44;;;;;;;;;;;;;;;21.36;41.25;97130.13;3135980;27;114606;-68
2020/12/04 00:33:15;;;;;;;;;;;;;;;21.36;41.37;97130.13;3135210;27;115375;-68
2020/12/04 00:34:46;;;;;;;;;;;;;;;21.37;41.16;97126.13;3138872;27;114621;-67
2020/12/04 00:36:17;;;;;;;;;;;;;;;21.40;41.55;97126.09;3136129;27;114051;-66
2020/12/04 00:37:48;;;;;;;;;;;;;;;21.42;41.43;97128.50;3135450;27;114166;-66
2020/12/04 00:39:20;;;;;;;;;;;;;;;21.43;41.20;97116.88;3136034;27;114630;-66
2020/12/04 00:40:51;;;;;;;;;;;;;;;21.44;41.38;97117.69;3121248;27;114391;-66
2020/12/04 00:42:22;;;;;;;;;;;;;;;21.44;41.16;97114.88;3130408;27;113843;-66
2020/12/04 00:43:55;;;;;;;;;;;;;;;21.45;41.20;97117.25;3133538;27;114314;-66
2020/12/04 00:45:30;;;;;;;;;;;;;;;21.46;41.30;97120.88;3122614;27;114003;-66
2020/12/04 00:47:03;;;;;;;;;;;;;;;21.46;41.49;97110.44;3131804;27;114093;-66
2020/12/04 00:48:34;;;;;;;;;;;;;;;21.46;41.16;97113.25;3126555;27;114132;-66
2020/12/04 00:50:05;;;;;;;;;;;;;;;21.46;41.48;97110.44;3133467;27;114655;-66
2020/12/04 00:51:37;;;;;;;;;;;;;;;21.46;41.05;97110.44;3136013;27;114245;-55
2020/12/04 00:53:08;;;;;;;;;;;;;;;21.45;41.42;97097.59;3135288;27;113792;-55
2020/12/04 00:54:39;;;;;;;;;;;;;;;21.47;41.22;97105.63;3135877;27;114354;-56
2020/12/04 00:56:11;;;;;;;;;;;;;;;21.47;41.45;97097.22;3128588;27;113906;-55
2020/12/04 00:57:42;;;;;;;;;;;;;;;21.47;41.08;97094.41;3130913;27;114536;-56
2020/12/04 00:59:13;;;;;;;;;;;;;;;21.45;41.43;97094.00;3134597;27;114192;-55
2020/12/04 01:00:45;;;;;;;;;;;;;;;21.45;41.33;97092.00;3135186;27;114169;-55
2020/12/04 01:02:17;;;;;;;;;;;;;;;21.46;41.52;97089.97;3135937;27;115269;-55
2020/12/04 01:03:48;;;;;;;;;;;;;;;21.46;41.29;97081.56;3134839;27;114889;-55
2020/12/04 01:05:22;;;;;;;;;;;;;;;21.45;41.57;97089.19;3136492;27;115232;-66
2020/12/04 01:06:53;;;;;;;;;;;;;;;21.45;41.34;97094.78;3135645;27;115039;-66
2020/12/04 01:08:25;;;;;;;;;;;;;;;21.44;41.62;97084.75;3125930;27;117932;-66
2020/12/04 01:09:56;;;;;;;;;;;;;;;21.44;41.21;97090.38;3131349;27;116792;-68
2020/12/04 01:11:30;;;;;;;;;;;;;;;21.43;41.49;97088.81;3121200;27;115570;-67
2020/12/04 01:13:02;;;;;;;;;;;;;;;21.43;41.33;97088.00;3121243;27;115274;-66
2020/12/04 01:14:33;;;;;;;;;;;;;;;21.43;41.55;97088.00;3121701;27;115226;-69
2020/12/04 01:16:07;;;;;;;;;;;;;;;21.41;41.33;97077.16;3123184;27;113882;-69
2020/12/04 01:17:39;;;;;;;;;;;;;;;21.40;41.66;97067.13;3123451;27;115501;-69
2020/12/04 01:19:10;;;;;;;;;;;;;;;21.40;41.26;97067.13;3116244;27;115378;-71
2020/12/04 01:20:41;;;;;;;;;;;;;;;21.40;41.65;97066.34;3122602;27;115879;-70
2020/12/04 01:22:13;;;;;;;;;;;;;;;21.39;41.46;97068.38;3122383;27;116034;-70
2020/12/04 01:23:45;;;;;;;;;;;;;;;21.39;41.62;97067.56;3121500;27;114317;-69
2020/12/04 01:25:16;;;;;;;;;;;;;;;21.37;41.76;97062.34;3123138;27;115711;-70
2020/12/04 01:26:49;;;;;;;;;;;;;;;21.38;41.36;97060.34;3122961;27;115953;-70
2020/12/04 01:28:20;;;;;;;;;;;;;;;21.36;41.27;97057.13;3119610;27;115514;-70
2020/12/04 01:29:51;;;;;;;;;;;;;;;21.35;41.66;97053.50;3122117;27;115710;-70
2020/12/04 01:31:22;;;;;;;;;;;;;;;21.34;41.34;97054.75;3123383;27;115963;-70
2020/12/04 01:32:53;;;;;;;;;;;;;;;21.33;41.58;97050.34;3121903;27;114589;-72
2020/12/04 01:34:27;;;;;;;;;;;;;;;21.32;41.48;97047.94;3123981;27;114926;-72
2020/12/04 01:35:58;;;;;;;;;;;;;;;21.31;41.40;97041.50;3122109;27;114710;-69
2020/12/04 01:37:30;;;;;;;;;;;;;;;21.32;41.64;97043.13;3122602;27;116177;-68
2020/12/04 01:39:01;;;;;;;;;;;;;;;21.29;41.69;97038.31;3122083;27;114588;-68
2020/12/04 01:40:33;;;;;;;;;;;;;;;21.29;41.59;97043.94;3123710;27;115347;-69
2020/12/04 01:42:05;;;;;;;;;;;;;;;21.29;41.46;97035.53;3122352;27;113723;-68
2020/12/04 01:43:36;;;;;;;;;;;;;;;21.26;41.82;97042.72;3121527;27;113832;-68
2020/12/04 01:45:07;;;;;;;;;;;;;;;21.24;41.58;97033.94;3121983;27;114409;-68
2020/12/04 01:46:39;;;;;;;;;;;;;;;21.22;41.63;97027.91;3121978;27;114121;-67
2020/12/04 01:48:11;;;;;;;;;;;;;;;21.20;41.64;97013.50;3122348;27;114000;-68
2020/12/04 01:49:42;;;;;;;;;;;;;;;21.19;41.50;97023.13;3123340;27;114582;-69
2020/12/04 01:51:14;;;;;;;;;;;;;;;21.18;41.87;97020.72;3122708;27;114196;-67
2020/12/04 01:52:45;;;;;;;;;;;;;;;21.17;41.82;97019.91;3121001;27;114007;-70
2020/12/04 01:54:18;;;;;;;;;;;;;;;21.17;41.66;97019.13;3122541;27;114261;-70
2020/12/04 01:55:50;;;;;;;;;;;;;;;21.15;41.97;97015.94;3121544;27;114002;-70
2020/12/04 01:57:24;;;;;;;;;;;;;;;21.13;41.81;97024.75;3121913;27;114315;-70
2020/12/04 01:58:55;;;;;;;;;;;;;;;21.13;42.00;97033.16;3121925;27;114055;-69
2020/12/04 02:00:26;;;;;;;;;;;;;;;21.11;42.16;97020.72;3123477;27;114078;-69
2020/12/04 02:02:16;;;;;;;;;;;;;;;21.10;41.93;97024.75;3125931;27;114689;-69
2020/12/04 02:03:47;;;;;;;;;;;;;;;21.07;42.11;97031.19;3121233;27;115115;-69
2020/12/04 02:05:18;;;;;;;;;;;;;;;21.05;42.00;97028.78;3121868;27;114101;-69
2020/12/04 02:06:52;;;;;;;;;;;;;;;21.04;42.02;97031.97;3122155;27;114571;-69
2020/12/04 02:08:32;;;;;;;;;;;;;;;21.03;42.22;97022.75;3121825;27;114105;-70
2020/12/04 02:10:09;;;;;;;;;;;;;;;21.01;42.17;97033.59;3122932;27;115222;-70
2020/12/04 02:11:41;;;;;;;;;;;;;;;20.99;42.02;97021.16;3126306;27;114221;-69
2020/12/04 02:13:13;;;;;;;;;;;;;;;20.98;42.25;97017.59;3133699;27;114007;-69
2020/12/04 02:14:47;;;;;;;;;;;;;;;20.96;42.29;97017.19;3135227;27;115241;-69
2020/12/04 02:16:19;;;;;;;;;;;;;;;20.95;42.02;97009.16;3135308;27;115361;-69
2020/12/04 02:17:55;;;;;;;;;;;;;;;20.94;42.39;97007.59;3134869;27;115069;-69
2020/12/04 02:19:26;;;;;;;;;;;;;;;20.90;42.33;97007.56;3110754;27;115411;-69
2020/12/04 02:20:59;;;;;;;;;;;;;;;20.90;42.37;97004.78;3130914;27;114591;-69
2020/12/04 02:22:34;;;;;;;;;;;;;;;20.89;42.41;97008.00;3133543;27;114347;-67
2020/12/04 02:24:06;;;;;;;;;;;;;;;20.88;42.34;97012.81;3138564;27;114079;-68
2020/12/04 02:25:37;;;;;;;;;;;;;;;20.86;42.56;97004.78;3121479;27;116723;-69
2020/12/04 02:27:09;;;;;;;;;;;;;;;20.85;42.50;97005.19;3122245;27;116511;-69
2020/12/04 02:28:40;;;;;;;;;;;;;;;20.84;42.41;96996.00;3129226;27;115804;-71
2020/12/04 02:30:13;;;;;;;;;;;;;;;20.81;42.32;96993.97;3130671;27;116043;-56
2020/12/04 02:31:44;;;;;;;;;;;;;;;20.82;42.65;96989.19;3125528;27;114634;-55
2020/12/04 02:33:16;;;;;;;;;;;;;;;20.79;42.47;96990.00;3112996;27;115960;-56
2020/12/04 02:34:47;;;;;;;;;;;;;;;20.78;42.67;96991.19;3130572;27;115928;-56
2020/12/04 02:36:18;;;;;;;;;;;;;;;20.77;42.80;96989.59;3135335;27;116120;-56
2020/12/04 02:37:52;;;;;;;;;;;;;;;20.78;42.41;96991.19;3134647;27;116332;-56
2020/12/04 02:39:23;;;;;;;;;;;;;;;20.75;42.35;96986.41;3133371;27;114930;-56
2020/12/04 02:40:54;;;;;;;;;;;;;;;20.73;42.52;96981.19;3120511;27;115866;-55
2020/12/04 02:42:26;;;;;;;;;;;;;;;20.74;42.52;96991.22;3120469;27;116883;-56
2020/12/04 02:43:57;;;;;;;;;;;;;;;20.72;42.64;96988.00;3128711;27;116009;-56
2020/12/04 02:45:28;;;;;;;;;;;;;;;20.70;42.75;96981.22;3135285;27;115735;-55
2020/12/04 02:47:00;;;;;;;;;;;;;;;20.69;42.85;96979.63;3137937;27;114031;-56
2020/12/04 02:48:31;;;;;;;;;;;;;;;20.66;42.58;96984.03;3133857;27;114260;-60
2020/12/04 02:50:03;;;;;;;;;;;;;;;20.60;42.90;96985.66;3135182;27;113682;-55
2020/12/04 02:51:34;;;;;;;;;;;;;;;20.62;42.66;96982.44;3134440;27;113945;-75
2020/12/04 02:53:05;;;;;;;;;;;;;;;20.60;42.83;96985.66;3134137;27;114273;-73
2020/12/04 02:54:37;;;;;;;;;;;;;;;20.60;42.84;96982.03;3135139;27;113690;-72
2020/12/04 02:56:08;;;;;;;;;;;;;;;20.56;42.76;96984.06;3120649;27;113856;-72
2020/12/04 02:57:39;;;;;;;;;;;;;;;20.56;42.62;96987.66;3125751;27;113907;-72
2020/12/04 02:59:11;;;;;;;;;;;;;;;20.55;42.76;96986.06;3134132;27;113844;-71
2020/12/04 03:00:42;;;;;;;;;;;;;;;20.55;42.97;96979.66;3134856;27;113888;-72
2020/12/04 03:02:13;;;;;;;;;;;;;;;20.54;42.74;96981.66;3134484;27;114088;-71
2020/12/04 03:03:44;;;;;;;;;;;;;;;20.52;42.93;96983.28;3134168;27;113962;-72
2020/12/04 03:05:15;;;;;;;;;;;;;;;20.51;42.57;96978.88;3120706;27;114139;-69
2020/12/04 03:06:46;;;;;;;;;;;;;;;20.47;43.01;96975.28;3129386;27;114073;-68
2020/12/04 03:08:18;;;;;;;;;;;;;;;20.48;42.71;96974.06;3137915;27;113937;-69
2020/12/04 03:09:49;;;;;;;;;;;;;;;20.47;42.56;96980.88;3121401;27;115119;-69
2020/12/04 03:11:23;;;;;;;;;;;;;;;20.46;42.60;96980.09;3128551;27;115469;-69
2020/12/04 03:12:55;;;;;;;;;;;;;;;20.45;42.75;96980.47;3134536;27;114288;-70
2020/12/04 03:14:26;;;;;;;;;;;;;;;20.42;42.85;96977.28;3134181;27;115338;-70
2020/12/04 03:15:57;;;;;;;;;;;;;;;20.42;42.65;96979.28;3132857;27;114020;-69
2020/12/04 03:17:29;;;;;;;;;;;;;;;20.42;42.82;96982.09;3108607;28;115149;-56
2020/12/04 03:19:05;;;;;;;;;;;;;;;20.39;42.75;96978.13;3128106;27;114264;-56
2020/12/04 03:20:37;;;;;;;;;;;;;;;20.39;42.62;96982.91;3135020;27;114509;-56
2020/12/04 03:22:08;;;;;;;;;;;;;;;20.37;42.94;96986.13;3134493;27;115227;-56
2020/12/04 03:23:39;;;;;;;;;;;;;;;20.35;42.63;96984.94;3124505;27;114098;-56
2020/12/04 03:25:10;;;;;;;;;;;;;;;20.34;42.94;96984.13;3115675;27;115215;-56
2020/12/04 03:26:41;;;;;;;;;;;;;;;20.34;42.83;96986.13;3129267;27;114030;-55
2020/12/04 03:28:13;;;;;;;;;;;;;;;20.31;42.75;96976.50;3132331;27;114204;-55
2020/12/04 03:29:47;;;;;;;;;;;;;;;20.29;43.03;96986.50;3138342;27;116470;-55
2020/12/04 03:31:18;;;;;;;;;;;;;;;20.30;43.04;96982.53;3131067;27;114555;-55
2020/12/04 03:32:49;;;;;;;;;;;;;;;20.27;43.04;96978.47;3116510;27;115732;-55
2020/12/04 03:34:20;;;;;;;;;;;;;;;20.26;42.94;96978.91;3118113;27;116905;-56
2020/12/04 03:35:51;;;;;;;;;;;;;;;20.26;43.19;96981.72;3126387;27;116370;-55
2020/12/04 03:37:23;;;;;;;;;;;;;;;20.24;42.92;96984.91;3133391;27;114785;-55
2020/12/04 03:38:54;;;;;;;;;;;;;;;20.22;42.99;96990.09;3133146;27;114824;-55
2020/12/04 03:40:25;;;;;;;;;;;;;;;20.22;42.99;96980.88;3134651;27;115873;-55
2020/12/04 03:41:56;;;;;;;;;;;;;;;20.19;42.82;96985.31;3133201;27;114933;-56
2020/12/04 03:43:27;;;;;;;;;;;;;;;20.16;43.00;96982.53;3128308;27;115825;-55
2020/12/04 03:44:59;;;;;;;;;;;;;;;20.17;42.91;96982.09;3126925;27;114776;-55
2020/12/04 03:46:30;;;;;;;;;;;;;;;20.16;42.99;96988.13;3134214;27;115770;-55
2020/12/04 03:48:01;;;;;;;;;;;;;;;20.16;43.06;96986.13;3123604;27;116014;-56
2020/12/04 03:49:32;;;;;;;;;;;;;;;20.14;43.10;96994.13;3137389;27;115815;-55
2020/12/04 03:51:03;;;;;;;;;;;;;;;20.12;42.90;96988.13;3139209;27;115351;-55
2020/12/04 03:52:34;;;;;;;;;;;;;;;20.10;42.76;96993.34;3122331;27;113749;-55
2020/12/04 03:54:06;;;;;;;;;;;;;;;20.12;42.71;96995.75;3122240;27;114438;-55
2020/12/04 03:55:37;;;;;;;;;;;;;;;20.10;43.02;96995.31;3131869;27;114017;-55
2020/12/04 03:57:08;;;;;;;;;;;;;;;20.06;43.02;96995.34;3135967;27;113700;-55
2020/12/04 03:58:40;;;;;;;;;;;;;;;20.04;43.22;97003.34;3133912;27;113752;-55
2020/12/04 04:00:11;;;;;;;;;;;;;;;20.04;43.18;97003.34;3126702;27;114234;-55
2020/12/04 04:01:42;;;;;;;;;;;;;;;20.01;43.31;97001.34;3136112;27;115512;-55
2020/12/04 04:03:13;;;;;;;;;;;;;;;20.01;43.12;96995.75;3135601;27;114223;-56
2020/12/04 04:04:45;;;;;;;;;;;;;;;19.98;43.34;96994.56;3136424;27;114185;-55
2020/12/04 04:06:16;;;;;;;;;;;;;;;19.98;43.10;97002.16;3125446;27;114320;-55
2020/12/04 04:07:49;;;;;;;;;;;;;;;19.97;43.24;96998.56;3118727;27;114332;-55
2020/12/04 04:09:21;;;;;;;;;;;;;;;19.94;43.25;97002.13;3118467;27;114305;-55
2020/12/04 04:10:52;;;;;;;;;;;;;;;19.93;43.37;96999.75;3131464;27;114718;-55
2020/12/04 04:12:23;;;;;;;;;;;;;;;19.93;43.33;97010.97;3133077;27;113804;-55
2020/12/04 04:13:54;;;;;;;;;;;;;;;19.93;43.35;97005.34;3137845;27;114688;-54
2020/12/04 04:15:25;;;;;;;;;;;;;;;19.92;43.11;97007.34;3136739;27;115258;-54
2020/12/04 04:16:57;;;;;;;;;;;;;;;19.91;43.16;97016.16;3134144;27;114303;-54
2020/12/04 04:18:28;;;;;;;;;;;;;;;19.87;43.23;97013.34;3135551;27;115136;-54
2020/12/04 04:19:59;;;;;;;;;;;;;;;19.88;43.24;97011.34;3136100;27;114571;-68
2020/12/04 04:21:30;;;;;;;;;;;;;;;19.86;43.19;97017.34;3136699;27;115816;-69
2020/12/04 04:23:01;;;;;;;;;;;;;;;19.83;43.38;97015.34;3134154;27;114287;-54
2020/12/04 04:24:32;;;;;;;;;;;;;;;19.84;43.20;97016.97;3136436;27;115236;-54
2020/12/04 04:26:04;;;;;;;;;;;;;;;19.82;43.24;97016.53;3135843;27;114060;-55
2020/12/04 04:27:35;;;;;;;;;;;;;;;19.81;43.16;97014.94;3134728;27;114322;-58
2020/12/04 04:29:06;;;;;;;;;;;;;;;19.79;43.42;97016.56;3134694;27;115298;-56
2020/12/04 04:30:38;;;;;;;;;;;;;;;19.80;43.15;97018.16;3136328;27;115392;-55
2020/12/04 04:32:09;;;;;;;;;;;;;;;19.80;43.19;97026.56;3133917;27;114506;-55
2020/12/04 04:33:41;;;;;;;;;;;;;;;19.77;43.27;97022.53;3134902;27;114460;-54
2020/12/04 04:35:12;;;;;;;;;;;;;;;19.78;43.13;97020.53;3137444;27;113923;-55
2020/12/04 04:36:44;;;;;;;;;;;;;;;19.75;43.37;97030.56;3136367;27;116043;-55
2020/12/04 04:38:15;;;;;;;;;;;;;;;19.75;43.58;97033.34;3135310;27;114888;-55
2020/12/04 04:39:46;;;;;;;;;;;;;;;19.74;43.78;97031.75;3135548;27;115957;-55
2020/12/04 04:41:17;;;;;;;;;;;;;;;19.74;43.49;97034.56;3134310;27;114863;-54
2020/12/04 04:42:49;;;;;;;;;;;;;;;19.72;43.64;97028.53;3134747;27;115689;-54
2020/12/04 04:44:20;;;;;;;;;;;;;;;19.71;43.42;97031.75;3135444;27;115751;-54
2020/12/04 04:45:53;;;;;;;;;;;;;;;19.71;43.65;97035.34;3135629;27;115863;-54
2020/12/04 04:47:28;;;;;;;;;;;;;;;19.70;43.61;97039.34;3136077;27;115388;-54
2020/12/04 04:49:05;;;;;;;;;;;;;;;19.69;43.44;97034.94;3134805;27;115767;-54
2020/12/04 04:50:36;;;;;;;;;;;;;;;19.68;43.60;97044.53;3136085;27;115639;-54
2020/12/04 04:52:08;;;;;;;;;;;;;;;19.65;43.51;97036.94;3136304;27;114574;-55
2020/12/04 04:53:42;;;;;;;;;;;;;;;19.67;43.48;97039.34;3135204;27;116744;-55
2020/12/04 04:55:14;;;;;;;;;;;;;;;19.62;43.49;97037.75;3134534;27;114730;-55
2020/12/04 04:56:48;;;;;;;;;;;;;;;19.64;43.61;97040.94;3138537;27;115785;-55
2020/12/04 04:58:20;;;;;;;;;;;;;;;19.62;43.59;97043.34;3134452;27;113844;-55
2020/12/04 04:59:54;;;;;;;;;;;;;;;19.61;43.51;97041.72;3135377;27;114084;-54
2020/12/04 05:01:26;;;;;;;;;;;;;;;19.60;43.72;97045.72;3121858;27;114412;-54
2020/12/04 05:02:57;;;;;;;;;;;;;;;19.58;43.65;97050.91;3130594;27;114164;-55
2020/12/04 05:04:46;;;;;;;;;;;;;;;19.57;43.83;97062.53;3131962;27;114473;-54
2020/12/04 05:06:29;;;;;;;;;;;;;;;19.55;43.41;97054.50;3127686;27;114287;-55
2020/12/04 05:08:08;;;;;;;;;;;;;;;19.53;43.75;97059.72;3127083;27;114166;-55
2020/12/04 05:09:40;;;;;;;;;;;;;;;19.52;43.81;97060.91;3127442;27;114708;-54
2020/12/04 05:11:11;;;;;;;;;;;;;;;19.52;43.69;97056.13;3134997;27;114103;-54
2020/12/04 05:12:44;;;;;;;;;;;;;;;19.50;43.75;97063.28;3133020;27;113996;-54
2020/12/04 05:14:16;;;;;;;;;;;;;;;19.49;43.43;97061.69;3134653;27;113850;-56
2020/12/04 05:15:47;;;;;;;;;;;;;;;19.49;43.51;97072.88;3130326;27;113883;-56
2020/12/04 05:17:18;;;;;;;;;;;;;;;19.47;43.57;97076.09;3135779;27;114955;-56
2020/12/04 05:18:49;;;;;;;;;;;;;;;19.46;43.61;97077.28;3138217;27;114162;-54
2020/12/04 05:20:21;;;;;;;;;;;;;;;19.44;43.65;97070.50;3136168;27;115369;-54
2020/12/04 05:21:52;;;;;;;;;;;;;;;19.45;43.60;97072.88;3135314;27;114519;-54
2020/12/04 05:23:24;;;;;;;;;;;;;;;19.42;43.59;97076.44;3134796;27;114300;-54
2020/12/04 05:24:55;;;;;;;;;;;;;;;19.42;43.69;97087.66;3135705;27;115202;-54
2020/12/04 05:26:36;;;;;;;;;;;;;;;19.44;43.64;97076.09;3134664;27;114878;-67
2020/12/04 05:28:17;;;;;;;;;;;;;;;19.45;44.23;97084.09;3133899;27;115152;-66
2020/12/04 05:29:50;;;;;;;;;;;;;;;19.49;43.73;97084.88;3135451;27;114103;-67
2020/12/04 05:31:27;;;;;;;;;;;;;;;19.52;43.69;97098.13;3135891;27;113983;-67
2020/12/04 05:32:59;;;;;;;;;;;;;;;19.55;43.91;97096.50;3129966;27;114206;-67
2020/12/04 05:34:31;;;;;;;;;;;;;;;19.57;43.99;97105.31;3135492;27;115288;-70
2020/12/04 05:36:04;;;;;;;;;;;;;;;19.60;43.95;97096.13;3136102;27;115257;-70
2020/12/04 05:37:36;;;;;;;;;;;;;;;19.64;43.95;97098.94;3135346;27;114597;-70
2020/12/04 05:39:07;;;;;;;;;;;;;;;19.66;43.81;97096.56;3134817;27;114285;-70
2020/12/04 05:40:39;;;;;;;;;;;;;;;19.70;43.92;97094.56;3139613;27;115162;-71
2020/12/04 05:42:11;;;;;;;;;;;;;;;19.71;43.75;97099.78;3134228;27;114744;-70
2020/12/04 05:43:43;;;;;;;;;;;;;;;19.75;43.75;97105.38;3133333;27;116321;-70
2020/12/04 05:45:14;;;;;;;;;;;;;;;19.77;43.80;97111.38;3135653;27;115840;-70
2020/12/04 05:46:53;;;;;;;;;;;;;;;19.78;43.77;97110.97;3135150;27;115828;-70
2020/12/04 05:48:24;;;;;;;;;;;;;;;19.83;43.66;97112.59;3135017;27;115126;-70
2020/12/04 05:49:56;;;;;;;;;;;;;;;19.85;43.76;97116.56;3135588;27;116099;-70
2020/12/04 05:51:28;;;;;;;;;;;;;;;19.88;43.79;97112.19;3135725;27;115795;-70
2020/12/04 05:52:59;;;;;;;;;;;;;;;19.92;43.68;97125.00;3134733;27;115177;-69
2020/12/04 05:54:30;;;;;;;;;;;;;;;19.94;43.96;97114.19;3136243;27;115853;-68
2020/12/04 05:56:02;;;;;;;;;;;;;;;19.98;43.93;97117.03;3135506;27;116214;-69
2020/12/04 05:57:43;;;;;;;;;;;;;;;20.02;43.85;97122.63;3133158;27;115218;-69
2020/12/04 05:59:14;;;;;;;;;;;;;;;20.04;43.66;97131.41;3134315;27;115780;-68
2020/12/04 06:00:47;;;;;;;;;;;;;;;20.07;43.69;97130.66;3135159;27;115875;-69
2020/12/04 06:02:18;;;;;;;;;;;;;;;20.11;43.66;97137.84;3135031;27;115746;-69
2020/12/04 06:03:57;;;;;;;;;;;;;;;20.16;43.68;97128.25;3137106;27;115011;-69
2020/12/04 06:05:29;;;;;;;;;;;;;;;20.18;43.54;97137.03;3135029;27;113991;-69
2020/12/04 06:07:00;;;;;;;;;;;;;;;20.19;43.53;97136.66;3135395;27;114218;-68
2020/12/04 06:08:32;;;;;;;;;;;;;;;20.23;43.39;97136.66;3134632;27;114206;-68
2020/12/04 06:10:03;;;;;;;;;;;;;;;20.25;43.46;97143.47;3136008;27;114311;-68
2020/12/04 06:11:36;;;;;;;;;;;;;;;20.29;43.48;97149.88;3134321;27;114348;-68
2020/12/04 06:13:08;;;;;;;;;;;;;;;20.32;43.27;97151.09;3127265;27;114807;-68
2020/12/04 06:14:39;;;;;;;;;;;;;;;20.34;43.05;97148.72;3134278;27;115021;-68
2020/12/04 06:16:12;;;;;;;;;;;;;;;20.37;43.40;97145.09;3134807;27;114055;-69
2020/12/04 06:17:44;;;;;;;;;;;;;;;20.40;43.18;97149.91;3134698;27;114269;-69
2020/12/04 06:19:28;;;;;;;;;;;;;;;20.41;43.25;97157.13;3134556;27;114539;-68
2020/12/04 06:20:59;;;;;;;;;;;;;;;20.45;42.80;97157.91;3117534;27;114252;-67
2020/12/04 06:22:31;;;;;;;;;;;;;;;20.47;43.19;97155.53;3129954;27;114271;-69
2020/12/04 06:24:06;;;;;;;;;;;;;;;20.50;43.36;97154.72;3134828;27;114451;-69
2020/12/04 06:25:50;;;;;;;;;;;;;;;20.53;43.14;97153.13;3138883;27;113825;-69
2020/12/04 06:27:34;;;;;;;;;;;;;;;20.56;43.07;97155.13;3134372;27;114098;-69
2020/12/04 06:29:05;;;;;;;;;;;;;;;20.60;42.86;97155.94;3133680;27;115114;-69
2020/12/04 06:30:39;;;;;;;;;;;;;;;20.62;43.08;97161.94;3135478;27;115168;-71
2020/12/04 06:32:30;;;;;;;;;;;;;;;20.64;42.98;97160.34;3120311;27;115301;-70
2020/12/04 06:34:11;;;;;;;;;;;;;;;20.68;42.88;97168.75;3132827;27;114503;-70
2020/12/04 06:35:43;;;;;;;;;;;;;;;20.70;42.57;97163.53;3134963;27;114232;-69
2020/12/04 06:37:33;;;;;;;;;;;;;;;20.73;42.78;97171.94;3135120;27;114373;-70
2020/12/04 06:39:04;;;;;;;;;;;;;;;20.75;42.76;97171.56;3130108;27;115310;-70
2020/12/04 06:40:36;;;;;;;;;;;;;;;20.77;42.86;97177.53;3134558;27;114073;-70
2020/12/04 06:42:08;;;;;;;;;;;;;;;20.78;42.77;97177.16;3134650;27;116858;-70
2020/12/04 06:43:39;;;;;;;;;;;;;;;20.80;42.73;97166.31;3132751;27;114063;-70
2020/12/04 06:45:10;;;;;;;;;;;;;;;20.83;42.66;97182.38;3134899;27;114163;-70
2020/12/04 06:46:49;;;;;;;;;;;;;;;20.84;42.46;97178.38;3133832;27;114144;-71
2020/12/04 06:48:20;;;;;;;;;;;;;;;20.87;42.59;97179.56;3137725;27;115134;-70
2020/12/04 06:49:51;;;;;;;;;;;;;;;20.88;42.42;97183.97;3135532;27;116617;-70
2020/12/04 06:51:22;;;;;;;;;;;;;;;20.92;42.10;97189.56;3134383;27;115573;-70
2020/12/04 06:53:05;;;;;;;;;;;;;;;20.92;42.32;97181.16;3134174;27;116137;-70
2020/12/04 06:54:38;;;;;;;;;;;;;;;20.95;42.32;97183.13;3120911;27;116544;-71
2020/12/04 06:56:10;;;;;;;;;;;;;;;20.97;42.26;97186.34;3129872;27;115036;-70
2020/12/04 06:57:41;;;;;;;;;;;;;;;20.98;42.03;97197.19;3133460;27;114875;-70
2020/12/04 06:59:12;;;;;;;;;;;;;;;21.01;42.20;97189.97;3133770;27;114803;-70
2020/12/04 07:00:43;;;;;;;;;;;;;;;21.02;42.07;97194.38;3134676;27;114622;-71
2020/12/04 07:02:16;;;;;;;;;;;;;;;21.04;42.06;97197.56;3128296;27;116351;-71
2020/12/04 07:03:47;;;;;;;;;;;;;;;21.07;41.87;97191.97;3113929;27;115686;-70
2020/12/04 07:05:23;;;;;;;;;;;;;;;21.07;42.08;97206.00;3130882;27;116784;-69
2020/12/04 07:07:04;;;;;;;;;;;;;;;21.10;41.66;97207.19;3134307;27;114561;-69
2020/12/04 07:08:35;;;;;;;;;;;;;;;21.11;41.92;97209.59;3134193;27;115335;-67
2020/12/04 07:10:06;;;;;;;;;;;;;;;21.13;41.64;97206.41;3124480;27;115110;-69
2020/12/04 07:11:38;;;;;;;;;;;;;;;21.15;41.43;97213.22;3129391;27;114042;-67
2020/12/04 07:13:18;;;;;;;;;;;;;;;21.17;41.72;97207.19;3125782;27;115101;-68
2020/12/04 07:15:03;;;;;;;;;;;;;;;21.17;41.41;97215.63;3130829;27;113951;-66
2020/12/04 07:16:39;;;;;;;;;;;;;;;21.20;41.40;97218.44;3123721;27;113806;-67
2020/12/04 07:18:11;;;;;;;;;;;;;;;21.21;42.05;97224.84;3127948;27;114950;-67
2020/12/04 07:19:46;;;;;;;;;;;;;;;21.24;41.51;97226.84;3137057;27;113807;-66
2020/12/04 07:21:17;;;;;;;;;;;;;;;21.25;41.23;97228.47;3135810;27;114242;-69
2020/12/04 07:22:48;;;;;;;;;;;;;;;21.27;41.09;97226.03;3136134;27;114049;-68
2020/12/04 07:24:19;;;;;;;;;;;;;;;21.28;41.11;97233.25;3135082;27;114495;-68
2020/12/04 07:25:50;;;;;;;;;;;;;;;21.29;41.11;97235.66;3136650;27;114176;-68
2020/12/04 07:27:26;;;;;;;;;;;;;;;21.31;41.12;97238.06;3135764;27;113923;-68
2020/12/04 07:28:57;;;;;;;;;;;;;;;21.32;41.17;97245.28;3134374;27;114278;-68
2020/12/04 07:30:29;;;;;;;;;;;;;;;21.32;41.09;97239.66;3136176;27;114260;-68
2020/12/04 07:32:00;;;;;;;;;;;;;;;21.34;40.99;97244.88;3136216;27;114176;-68
2020/12/04 07:33:31;;;;;;;;;;;;;;;21.35;40.86;97243.69;3139560;27;114475;-68
2020/12/04 07:35:02;;;;;;;;;;;;;;;21.36;40.88;97246.06;3136406;27;115292;-65
2020/12/04 07:36:33;;;;;;;;;;;;;;;21.38;40.75;97246.47;3136568;27;114143;-66
2020/12/04 07:38:08;;;;;;;;;;;;;;;21.39;40.61;97261.31;3122036;27;114980;-68
2020/12/04 07:39:40;;;;;;;;;;;;;;;21.39;40.64;97256.50;3131267;27;115353;-66
2020/12/04 07:41:21;;;;;;;;;;;;;;;21.41;40.85;97250.47;3134939;27;114025;-68
2020/12/04 07:42:52;;;;;;;;;;;;;;;21.42;40.63;97254.88;3135044;27;115113;-66
2020/12/04 07:44:31;;;;;;;;;;;;;;;21.44;40.67;97260.91;3135614;27;114281;-69
2020/12/04 07:46:02;;;;;;;;;;;;;;;21.44;40.46;97261.69;3135319;27;114578;-68
2020/12/04 07:47:36;;;;;;;;;;;;;;;21.45;40.59;97259.69;3122023;27;115066;-68
2020/12/04 07:49:09;;;;;;;;;;;;;;;21.46;40.78;97272.53;3130170;27;114246;-68
2020/12/04 07:50:40;;;;;;;;;;;;;;;21.48;40.40;97264.53;3124361;27;115116;-71
2020/12/04 07:52:11;;;;;;;;;;;;;;;21.48;40.72;97270.13;3122108;27;115206;-70
2020/12/04 07:53:43;;;;;;;;;;;;;;;21.50;40.38;97278.94;3130699;27;114108;-70
2020/12/04 07:55:14;;;;;;;;;;;;;;;21.51;40.98;97274.94;3126077;27;114326;-70